Time;durP1;ratioP1;P1;durP2;ratioP2;P2;SDS_P1;SDS_P2;PMS_P1;PMS_P2;Temp;Humidity;BMP_temperature;BMP_pressure;BME280_temperature;BME280_humidity;BME280_pressure;Samples;Min_cycle;Max_cycle;Signal;HPM_P1;HPM_P2
2021/11/16 00:02:33;;;;;;;18.15;6.38;;;;;;;5.12;100.00;102372.72;6272608;28;20053;-69
2021/11/16 00:05:35;;;;;;;14.75;6.60;;;;;;;5.09;100.00;102360.59;6272417;28;20645;-69
2021/11/16 00:08:37;;;;;;;18.48;6.93;;;;;;;5.08;100.00;102367.53;6272484;28;20052;-69
2021/11/16 00:11:39;;;;;;;17.75;7.40;;;;;;;5.07;100.00;102367.53;6272156;28;20135;-69
2021/11/16 00:14:41;;;;;;;25.52;6.72;;;;;;;5.07;100.00;102363.19;6272653;28;20045;-69
2021/11/16 00:17:42;;;;;;;14.80;6.22;;;;;;;5.08;100.00;102372.75;6272542;28;20052;-69
2021/11/16 00:20:45;;;;;;;16.30;6.03;;;;;;;5.09;100.00;102369.28;6272227;28;20056;-69
2021/11/16 00:23:52;;;;;;;19.33;6.40;;;;;;;5.05;100.00;102364.97;6271968;28;20411;-69
2021/11/16 00:26:55;;;;;;;16.30;6.38;;;;;;;5.04;100.00;102359.72;6272457;28;20091;-69
2021/11/16 00:29:57;;;;;;;16.67;5.20;;;;;;;5.07;100.00;102363.19;6271825;28;20049;-69
2021/11/16 00:32:59;;;;;;;17.17;6.15;;;;;;;5.09;100.00;102358.88;6271524;28;20056;-69
2021/11/16 00:36:00;;;;;;;15.68;5.57;;;;;;;5.08;100.00;102345.81;6272148;28;20419;-69
2021/11/16 00:39:03;;;;;;;19.20;7.30;;;;;;;5.07;100.00;102350.16;6272131;28;20052;-69
2021/11/16 00:42:06;;;;;;;14.05;6.60;;;;;;;5.06;100.00;102345.84;6271330;28;20053;-69
2021/11/16 00:45:10;;;;;;;18.30;6.55;;;;;;;5.08;100.00;102338.88;6271580;28;20060;-69
2021/11/16 00:48:13;;;;;;;15.57;6.05;;;;;;;5.08;100.00;102331.06;6271687;28;20495;-69
2021/11/16 00:51:14;;;;;;;15.80;5.28;;;;;;;5.03;100.00;102330.22;6271349;28;20049;-69
2021/11/16 00:54:16;;;;;;;23.52;6.80;;;;;;;5.03;100.00;102327.59;6271790;28;20515;-69
2021/11/16 00:57:18;;;;;;;13.13;4.82;;;;;;;5.03;100.00;102326.75;6271631;28;20061;-69
2021/11/16 01:00:20;;;;;;;18.80;5.93;;;;;;;5.06;100.00;102321.53;6271550;28;20146;-69
2021/11/16 01:03:25;;;;;;;23.73;6.28;;;;;;;5.06;100.00;102324.13;6271319;28;20530;-69
2021/11/16 01:06:26;;;;;;;12.95;5.53;;;;;;;4.98;100.00;102318.94;6270886;28;20045;-69
2021/11/16 01:09:27;;;;;;;21.65;6.72;;;;;;;5.02;100.00;102315.47;6271357;28;20492;-69
2021/11/16 01:12:30;;;;;;;14.02;6.22;;;;;;;4.95;100.00;102302.47;6270752;28;20053;-69
2021/11/16 01:15:34;;;;;;;17.15;6.22;;;;;;;4.93;100.00;102299.00;6271232;28;20408;-69
2021/11/16 01:18:35;;;;;;;14.50;5.57;;;;;;;4.96;100.00;102292.06;6271050;28;20045;-69
2021/11/16 01:21:37;;;;;;;19.25;6.70;;;;;;;4.93;100.00;102293.81;6271189;28;20508;-69
2021/11/16 01:24:39;;;;;;;15.55;6.68;;;;;;;4.90;100.00;102286.84;6273521;28;20072;-69
2021/11/16 01:27:42;;;;;;;15.85;5.35;;;;;;;4.89;100.00;102289.47;6276294;28;20059;-69
2021/11/16 01:30:48;;;;;;;13.40;5.35;;;;;;;4.91;100.00;102277.34;6275890;28;20562;-69
2021/11/16 01:33:54;;;;;;;12.52;5.60;;;;;;;4.90;100.00;102284.25;6276128;28;20045;-69
2021/11/16 01:36:56;;;;;;;19.30;5.97;;;;;;;4.91;100.00;102279.94;6329621;22;20604;-71
2021/11/16 01:39:57;;;;;;;20.02;5.70;;;;;;;4.93;100.00;102281.63;6320570;28;20049;-71
2021/11/16 01:43:03;;;;;;;17.35;6.68;;;;;;;4.93;100.00;102279.03;6321358;28;20054;-70
2021/11/16 01:46:08;;;;;;;16.13;5.82;;;;;;;4.93;100.00;102271.22;6335704;28;20044;-71
2021/11/16 01:49:10;;;;;;;16.70;5.80;;;;;;;4.92;100.00;102274.72;6351439;28;20510;-71
2021/11/16 01:52:11;;;;;;;16.23;6.60;;;;;;;4.92;100.00;102279.06;6351167;28;20490;-71
2021/11/16 01:55:15;;;;;;;15.57;6.13;;;;;;;4.92;100.00;102277.31;6343906;28;20047;-71
2021/11/16 01:58:18;;;;;;;14.65;5.40;;;;;;;4.89;100.00;102271.25;6350756;28;20047;-71
2021/11/16 02:01:20;;;;;;;19.23;6.53;;;;;;;4.89;100.00;102266.91;6351070;28;20058;-71
2021/11/16 02:04:22;;;;;;;10.20;4.95;;;;;;;4.90;100.00;102267.75;6350801;28;20047;-71
2021/11/16 02:07:23;;;;;;;16.17;6.00;;;;;;;4.89;100.00;102259.09;6351073;28;20512;-71
2021/11/16 02:10:24;;;;;;;16.30;6.47;;;;;;;4.87;100.00;102252.16;6350130;28;20046;-71
2021/11/16 02:13:27;;;;;;;20.30;6.85;;;;;;;4.89;100.00;102247.81;6350688;28;20047;-71
2021/11/16 02:16:29;;;;;;;18.20;7.20;;;;;;;4.88;100.00;102253.91;6350540;28;20498;-71
2021/11/16 02:19:32;;;;;;;20.23;6.43;;;;;;;4.84;100.00;102247.81;6350652;28;20065;-71
2021/11/16 02:22:34;;;;;;;27.70;7.63;;;;;;;4.84;100.00;102240.88;6350444;28;20096;-71
2021/11/16 02:25:36;;;;;;;21.55;6.45;;;;;;;4.83;100.00;102246.09;6350405;28;20051;-71
2021/11/16 02:28:41;;;;;;;12.82;5.57;;;;;;;4.81;100.00;102243.53;6350594;28;20049;-71
2021/11/16 02:31:45;;;;;;;16.15;5.15;;;;;;;4.81;100.00;102237.41;6350231;28;20043;-71
2021/11/16 02:34:46;;;;;;;19.38;7.13;;;;;;;4.83;100.00;102236.53;6350475;28;20060;-71
2021/11/16 02:37:49;;;;;;;13.68;5.53;;;;;;;4.88;100.00;102235.66;6350212;28;20059;-70
2021/11/16 02:40:53;;;;;;;17.70;6.78;;;;;;;4.88;100.00;102233.91;6347983;28;20044;-71
2021/11/16 02:43:54;;;;;;;22.85;8.23;;;;;;;4.87;100.00;102226.13;6350741;28;20047;-71
2021/11/16 02:46:55;;;;;;;18.88;6.07;;;;;;;4.88;100.00;102222.63;6350976;28;20047;-71
2021/11/16 02:49:57;;;;;;;18.70;6.57;;;;;;;4.88;100.00;102226.09;6350525;27;20051;-71
2021/11/16 02:52:59;;;;;;;19.45;6.60;;;;;;;4.86;100.00;102225.25;6350129;28;20141;-71
2021/11/16 02:56:01;;;;;;;19.92;7.32;;;;;;;4.82;100.00;102224.41;6349860;28;20055;-71
2021/11/16 02:59:03;;;;;;;17.33;7.40;;;;;;;4.80;100.00;102217.47;6349596;28;20052;-71
2021/11/16 03:02:05;;;;;;;20.67;8.00;;;;;;;4.80;100.00;102226.13;6349555;28;20387;-71
2021/11/16 03:05:07;;;;;;;22.27;6.78;;;;;;;4.81;100.00;102227.00;6348913;28;20040;-71
2021/11/16 03:08:16;;;;;;;15.27;6.47;;;;;;;4.81;100.00;102221.78;6341121;27;20047;-71
2021/11/16 03:11:19;;;;;;;19.50;6.88;;;;;;;4.79;100.00;102224.41;6340031;28;20397;-71
2021/11/16 03:14:20;;;;;;;15.05;6.55;;;;;;;4.81;100.00;102213.97;6349331;28;20047;-71
2021/11/16 03:17:22;;;;;;;18.15;6.55;;;;;;;4.83;100.00;102213.09;6337054;28;20509;-71
2021/11/16 03:20:23;;;;;;;17.40;7.72;;;;;;;4.83;100.00;102204.44;6340757;28;20048;-71
2021/11/16 03:23:26;;;;;;;21.35;7.65;;;;;;;4.83;100.00;102210.50;6340587;28;20051;-71
2021/11/16 03:26:29;;;;;;;18.73;6.88;;;;;;;4.84;100.00;102206.16;6349089;28;20051;-71
2021/11/16 03:29:31;;;;;;;20.52;7.38;;;;;;;4.79;100.00;102203.56;6340412;28;20071;-71
2021/11/16 03:32:35;;;;;;;22.88;6.95;;;;;;;4.81;100.00;102203.56;6348997;28;20059;-70
2021/11/16 03:35:37;;;;;;;17.85;6.70;;;;;;;4.78;100.00;102201.00;6348450;27;20052;-71
2021/11/16 03:38:41;;;;;;;21.30;8.10;;;;;;;4.74;100.00;102205.34;6348769;28;20486;-71
2021/11/16 03:41:42;;;;;;;17.27;6.85;;;;;;;4.69;100.00;102194.09;6332764;28;20056;-71
2021/11/16 03:44:44;;;;;;;18.08;6.75;;;;;;;4.71;100.00;102199.28;6344440;28;20040;-71
2021/11/16 03:47:46;;;;;;;16.15;7.18;;;;;;;4.70;100.00;102200.16;6336550;28;20059;-71
2021/11/16 03:50:47;;;;;;;23.85;7.60;;;;;;;4.65;100.00;102204.53;6331651;28;20048;-70
2021/11/16 03:53:50;;;;;;;15.32;5.68;;;;;;;4.66;100.00;102208.88;6323159;28;20059;-71
2021/11/16 03:56:52;;;;;;;16.67;7.00;;;;;;;4.64;100.00;102206.28;6338699;28;20048;-71
2021/11/16 03:59:54;;;;;;;20.25;7.47;;;;;;;4.64;100.00;102198.47;6340721;28;20395;-71
2021/11/16 04:02:55;;;;;;;16.30;6.13;;;;;;;4.65;100.00;102199.34;6339151;28;20191;-71
2021/11/16 04:05:57;;;;;;;18.92;6.45;;;;;;;4.67;100.00;102192.38;6348208;28;20047;-71
2021/11/16 04:09:00;;;;;;;22.17;6.07;;;;;;;4.67;100.00;102198.44;6347899;28;20058;-71
2021/11/16 04:12:01;;;;;;;18.58;6.60;;;;;;;4.69;100.00;102195.84;6324382;28;20044;-71
2021/11/16 04:15:03;;;;;;;19.33;6.65;;;;;;;4.69;100.00;102193.25;6322422;28;20044;-71
2021/11/16 04:18:05;;;;;;;22.63;6.18;;;;;;;4.70;100.00;102192.34;6322621;28;20126;-70
2021/11/16 04:21:06;;;;;;;19.85;8.25;;;;;;;4.67;100.00;102181.94;6326528;28;20419;-71
2021/11/16 04:24:09;;;;;;;22.58;7.00;;;;;;;4.66;100.00;102185.44;6338856;28;20440;-71
2021/11/16 04:27:10;;;;;;;22.02;7.53;;;;;;;4.66;100.00;102188.03;6347581;28;20047;-70
2021/11/16 04:30:14;;;;;;;13.73;5.68;;;;;;;4.66;100.00;102186.28;6347357;28;20410;-71
2021/11/16 04:33:17;;;;;;;18.42;6.15;;;;;;;4.63;100.00;102180.22;6347550;28;20048;-71
2021/11/16 04:36:19;;;;;;;20.70;7.13;;;;;;;4.61;100.00;102185.47;6347222;28;20048;-71
2021/11/16 04:39:22;;;;;;;22.13;7.03;;;;;;;4.60;100.00;102188.09;6334649;28;20153;-71
2021/11/16 04:42:23;;;;;;;15.93;6.13;;;;;;;4.60;100.00;102188.94;6321815;28;20048;-71
2021/11/16 04:45:25;;;;;;;20.13;6.43;;;;;;;4.64;100.00;102200.22;6321933;28;20483;-71
2021/11/16 04:48:41;;;;;;;14.30;5.57;;;;;;;4.67;100.00;102194.97;6321939;28;20197;-71
2021/11/16 04:55:21;;;;;;;19.73;7.18;;;;;;;4.68;100.00;102194.97;6321279;28;20048;-70
2021/11/16 05:05:04;;;;;;;24.77;6.00;;;;;;;4.66;100.00;102188.91;6321510;28;20048;-71
2021/11/16 05:08:05;;;;;;;18.58;7.00;;;;;;;4.71;100.00;102192.34;6321565;28;20048;-71
2021/11/16 05:11:09;;;;;;;18.98;7.55;;;;;;;4.66;100.00;102186.28;6339904;28;20498;-71
2021/11/16 05:14:11;;;;;;;17.73;6.30;;;;;;;4.69;100.00;102190.63;6346594;28;20048;-71
2021/11/16 05:17:12;;;;;;;23.98;7.15;;;;;;;4.69;100.00;102190.63;6346618;28;20047;-71
2021/11/16 05:20:14;;;;;;;22.35;7.97;;;;;;;4.70;100.00;102185.41;6346269;28;20054;-71
2021/11/16 05:23:18;;;;;;;21.52;6.90;;;;;;;4.71;100.00;102186.28;6346584;28;20155;-71
2021/11/16 05:26:21;;;;;;;18.45;7.10;;;;;;;4.76;100.00;102185.34;6346314;28;20082;-71
2021/11/16 05:29:23;;;;;;;25.67;6.65;;;;;;;4.70;100.00;102182.81;6346592;28;20055;-71
2021/11/16 05:32:24;;;;;;;25.35;7.25;;;;;;;4.66;100.00;102172.41;6346289;28;20063;-71
2021/11/16 05:35:25;;;;;;;16.95;7.05;;;;;;;4.64;100.00;102171.56;6346419;28;20043;-71
2021/11/16 05:38:29;;;;;;;21.63;7.85;;;;;;;4.60;100.00;102170.72;6346285;28;20048;-70
2021/11/16 05:41:32;;;;;;;23.10;7.18;;;;;;;4.65;100.00;102171.56;6322061;28;20052;-71
2021/11/16 05:44:33;;;;;;;16.95;7.47;;;;;;;4.54;100.00;102169.03;6320882;28;20495;-71
2021/11/16 05:47:37;;;;;;;25.15;7.40;;;;;;;4.54;100.00;102170.72;6321184;28;20079;-71
2021/11/16 05:50:39;;;;;;;21.05;6.68;;;;;;;4.51;100.00;102165.56;6320771;28;20487;-70
2021/11/16 05:53:44;;;;;;;20.25;6.68;;;;;;;4.52;100.00;102162.06;6320821;28;20396;-72
2021/11/16 05:56:46;;;;;;;19.38;7.15;;;;;;;4.52;100.00;102162.06;6336511;28;20123;-69
2021/11/16 05:59:48;;;;;;;21.83;6.97;;;;;;;4.54;100.00;102161.22;6337166;28;20490;-71
2021/11/16 06:02:50;;;;;;;21.55;8.13;;;;;;;4.54;100.00;102161.22;6336085;28;20044;-71
2021/11/16 06:05:51;;;;;;;19.73;6.35;;;;;;;4.57;100.00;102161.16;6341379;28;20040;-71
2021/11/16 06:08:53;;;;;;;17.80;6.45;;;;;;;4.58;100.00;102165.50;6337538;28;20486;-71
2021/11/16 06:11:56;;;;;;;18.48;6.50;;;;;;;4.62;100.00;102171.56;6324546;28;20051;-71
2021/11/16 06:14:57;;;;;;;23.48;7.93;;;;;;;4.62;100.00;102173.31;6325550;28;20044;-71
2021/11/16 06:17:58;;;;;;;25.70;7.82;;;;;;;4.67;100.00;102169.78;6334225;28;20478;-71
2021/11/16 06:21:00;;;;;;;16.15;6.18;;;;;;;4.69;100.00;102169.81;6342101;28;20081;-71
2021/11/16 06:24:01;;;;;;;25.80;8.73;;;;;;;4.71;100.00;102171.50;6350492;28;20307;-71
2021/11/16 06:27:05;;;;;;;19.23;8.38;;;;;;;4.69;100.00;102175.00;6350424;28;20418;-71
2021/11/16 06:30:08;;;;;;;21.92;7.00;;;;;;;4.69;100.00;102186.28;6350314;28;20051;-70
2021/11/16 06:33:09;;;;;;;23.15;7.88;;;;;;;4.66;100.00;102178.47;6341586;28;20542;-71
2021/11/16 06:36:11;;;;;;;22.48;6.40;;;;;;;4.69;100.00;102191.50;6341677;28;20050;-70
2021/11/16 06:39:15;;;;;;;25.20;6.82;;;;;;;4.71;100.00;102189.72;6340988;28;20048;-71
2021/11/16 06:42:18;;;;;;;29.73;7.72;;;;;;;4.74;100.00;102194.06;6324724;28;20051;-71
2021/11/16 06:45:19;;;;;;;23.00;6.88;;;;;;;4.77;100.00;102194.94;6324494;28;20040;-71
2021/11/16 06:48:22;;;;;;;25.65;7.75;;;;;;;4.80;100.00;102189.69;6339765;28;20048;-69
2021/11/16 06:51:23;;;;;;;23.73;6.25;;;;;;;4.79;100.00;102192.31;6324360;28;20048;-71
2021/11/16 06:54:26;;;;;;;17.95;6.70;;;;;;;4.75;100.00;102196.66;6323913;28;20468;-71
2021/11/16 06:57:29;;;;;;;23.38;7.35;;;;;;;4.71;100.00;102200.16;6322400;28;20055;-70
2021/11/16 07:00:32;;;;;;;17.42;7.63;;;;;;;4.68;100.00;102207.09;6323612;28;20055;-70
2021/11/16 07:03:34;;;;;;;18.08;6.68;;;;;;;4.65;100.00;102196.72;6324308;28;20136;-70
2021/11/16 07:06:37;;;;;;;24.45;6.45;;;;;;;4.66;100.00;102204.53;6323570;28;20461;-71
2021/11/16 07:09:41;;;;;;;20.80;7.53;;;;;;;4.69;100.00;102201.06;6338146;28;20048;-71
2021/11/16 07:12:44;;;;;;;27.05;7.75;;;;;;;4.70;100.00;102202.78;6349345;28;20142;-71
2021/11/16 07:15:45;;;;;;;25.85;6.97;;;;;;;4.75;100.00;102203.59;6349448;28;20039;-69
2021/11/16 07:18:50;;;;;;;21.20;8.00;;;;;;;4.75;100.00;102203.59;6349375;28;20071;-70
2021/11/16 07:21:54;;;;;;;27.45;7.30;;;;;;;4.72;100.00;102204.47;6348164;28;20059;-70
2021/11/16 07:25:01;;;;;;;20.70;6.30;;;;;;;4.72;100.00;102204.47;6349089;28;20064;-70
2021/11/16 07:28:05;;;;;;;17.38;7.18;;;;;;;4.73;100.00;102207.97;6348863;28;20070;-70
2021/11/16 07:31:06;;;;;;;20.33;6.65;;;;;;;4.70;100.00;102203.63;6348825;28;20056;-70
2021/11/16 07:34:13;;;;;;;20.98;6.32;;;;;;;4.70;100.00;102206.22;6348868;27;20056;-69
2021/11/16 07:37:16;;;;;;;15.23;6.32;;;;;;;4.72;100.00;102214.88;6341284;22;20048;-68
2021/11/16 07:40:20;;;;;;;20.50;7.38;;;;;;;4.72;100.00;102212.28;6276578;28;20522;-67
2021/11/16 07:43:26;;;;;;;27.50;7.82;;;;;;;4.68;100.00;102210.59;6273367;28;20134;-68
2021/11/16 07:46:27;;;;;;;22.00;7.10;;;;;;;4.67;100.00;102207.97;6273086;28;20045;-68
2021/11/16 07:49:29;;;;;;;19.83;5.97;;;;;;;4.68;100.00;102210.59;6273239;28;20053;-69
2021/11/16 07:52:30;;;;;;;29.73;7.82;;;;;;;4.70;100.00;102213.19;6272863;28;20071;-69
2021/11/16 07:55:32;;;;;;;25.02;7.32;;;;;;;4.71;100.00;102200.16;6273274;28;20052;-68
2021/11/16 07:58:37;;;;;;;19.75;6.63;;;;;;;4.69;100.00;102203.66;6272964;28;20052;-68
2021/11/16 08:01:41;;;;;;;27.98;8.25;;;;;;;4.69;100.00;102194.09;6281485;28;20052;-69
2021/11/16 08:04:46;;;;;;;23.90;8.00;;;;;;;4.69;100.00;102199.31;6297630;28;20048;-69
2021/11/16 08:08:07;;;;;;;25.48;6.97;;;;;;;4.67;100.00;102194.97;6296970;28;20135;-68
2021/11/16 08:11:17;;;;;;;20.67;8.30;;;;;;;4.60;100.00;102198.50;6297184;28;20480;-68
2021/11/16 08:14:20;;;;;;;22.08;7.72;;;;;;;4.63;100.00;102190.66;6297556;28;20051;-69
2021/11/16 08:17:24;;;;;;;18.20;6.53;;;;;;;4.66;100.00;102198.44;6297307;28;20056;-69
2021/11/16 08:20:25;;;;;;;17.23;7.03;;;;;;;4.65;100.00;102187.19;6297055;28;20415;-69
2021/11/16 08:23:27;;;;;;;24.15;6.43;;;;;;;4.65;100.00;102197.59;6297317;28;20053;-68
2021/11/16 08:26:33;;;;;;;27.90;6.68;;;;;;;4.60;100.00;102193.28;6297224;28;20053;-69
2021/11/16 08:29:39;;;;;;;17.90;5.57;;;;;;;4.58;100.00;102188.06;6297270;28;20048;-68
2021/11/16 08:32:45;;;;;;;23.73;5.82;;;;;;;4.58;100.00;102194.13;6295001;28;20048;-68
2021/11/16 08:35:48;;;;;;;18.90;5.68;;;;;;;4.61;100.00;102195.00;6296900;28;20044;-68
2021/11/16 08:38:50;;;;;;;18.52;5.38;;;;;;;4.61;100.00;102189.81;6297072;28;20129;-67
2021/11/16 08:41:52;;;;;;;20.63;7.20;;;;;;;4.57;100.00;102192.41;6296426;28;20492;-67
2021/11/16 08:45:00;;;;;;;18.67;6.47;;;;;;;4.56;100.00;102189.81;6297016;28;20055;-67
2021/11/16 08:48:07;;;;;;;23.10;6.90;;;;;;;4.54;100.00;102184.66;6296618;28;20055;-67
2021/11/16 08:51:12;;;;;;;22.05;6.07;;;;;;;4.53;100.00;102187.22;6296747;28;20077;-67
2021/11/16 08:54:13;;;;;;;24.55;7.15;;;;;;;4.54;100.00;102183.75;6296642;28;20044;-67
2021/11/16 08:57:19;;;;;;;15.65;6.30;;;;;;;4.57;100.00;102187.22;6296543;28;20044;-67
2021/11/16 09:00:26;;;;;;;20.80;6.47;;;;;;;4.58;100.00;102181.13;6294670;28;20051;-68
2021/11/16 09:03:29;;;;;;;22.50;6.68;;;;;;;4.58;100.00;102173.31;6296309;28;20049;-69
2021/11/16 09:06:32;;;;;;;18.17;5.70;;;;;;;4.60;100.00;102175.94;6295805;28;20419;-69
2021/11/16 09:09:33;;;;;;;23.73;7.18;;;;;;;4.65;100.00;102175.91;6296591;28;20045;-69
2021/11/16 09:12:41;;;;;;;17.90;6.55;;;;;;;4.66;100.00;102167.22;6296241;28;20055;-69
2021/11/16 09:15:46;;;;;;;30.52;6.97;;;;;;;4.61;100.00;102166.38;6296370;28;20048;-69
2021/11/16 09:18:50;;;;;;;28.85;8.57;;;;;;;4.65;100.00;102155.06;6283159;28;20500;-69
2021/11/16 09:21:51;;;;;;;25.20;7.85;;;;;;;4.65;100.00;102155.94;6274036;28;20049;-69
2021/11/16 09:24:53;;;;;;;17.02;6.57;;;;;;;4.64;100.00;102151.59;6271367;28;20045;-69
2021/11/16 09:28:01;;;;;;;19.20;6.13;;;;;;;4.66;100.00;102152.44;6271327;28;20511;-68
2021/11/16 09:31:17;;;;;;;17.60;5.80;;;;;;;4.70;100.00;102150.69;6272416;28;20056;-68
2021/11/16 09:34:27;;;;;;;21.38;6.53;;;;;;;4.71;100.00;102150.66;6271534;28;20055;-68
2021/11/16 09:37:30;;;;;;;15.60;5.57;;;;;;;4.70;100.00;102153.28;6272722;28;20045;-68
2021/11/16 09:40:31;;;;;;;18.75;6.57;;;;;;;4.68;100.00;102145.50;6280604;28;20056;-68
2021/11/16 09:43:33;;;;;;;20.23;7.25;;;;;;;4.67;100.00;102141.16;6283778;28;20044;-68
2021/11/16 09:46:48;;;;;;;15.93;6.15;;;;;;;4.70;100.00;102146.34;6299653;28;20045;-68
2021/11/16 09:49:55;;;;;;;22.13;7.63;;;;;;;4.71;100.00;102140.25;6300660;28;20045;-68
2021/11/16 09:52:59;;;;;;;19.08;6.65;;;;;;;4.72;100.00;102141.97;6300716;28;20048;-68
2021/11/16 09:56:01;;;;;;;18.92;6.70;;;;;;;4.76;100.00;102150.63;6300760;28;20056;-68
2021/11/16 09:59:04;;;;;;;20.38;6.35;;;;;;;4.76;100.00;102138.47;6300700;28;20052;-68
2021/11/16 10:02:07;;;;;;;17.35;7.07;;;;;;;4.77;100.00;102142.84;6292106;28;20048;-68
2021/11/16 10:05:16;;;;;;;23.58;7.53;;;;;;;4.80;100.00;102131.53;6275714;28;20056;-68
2021/11/16 10:08:19;;;;;;;20.40;8.43;;;;;;;4.78;100.00;102131.53;6275350;28;20052;-68
2021/11/16 10:11:22;;;;;;;21.13;6.63;;;;;;;4.80;100.00;102134.97;6275431;28;20053;-68
2021/11/16 10:14:23;;;;;;;19.70;6.07;;;;;;;4.83;100.00;102127.16;6275856;28;20053;-68
2021/11/16 10:17:26;;;;;;;16.20;5.90;;;;;;;4.84;100.00;102128.03;6275814;28;20049;-68
2021/11/16 10:20:30;;;;;;;21.63;6.82;;;;;;;4.82;100.00;102130.66;6275469;28;20415;-68
2021/11/16 10:23:34;;;;;;;22.90;7.18;;;;;;;4.86;100.00;102128.00;6275401;28;20083;-68
2021/11/16 10:26:36;;;;;;;19.33;6.28;;;;;;;4.90;100.00;102117.53;6275354;28;20060;-69
2021/11/16 10:29:37;;;;;;;15.70;6.70;;;;;;;4.91;100.00;102124.50;6276099;28;20048;-69
2021/11/16 10:32:41;;;;;;;19.85;5.78;;;;;;;4.91;100.00;102108.88;6275392;28;20528;-69
2021/11/16 10:35:48;;;;;;;29.17;7.75;;;;;;;4.92;100.00;102104.53;6274528;28;20049;-69
2021/11/16 10:38:53;;;;;;;24.40;6.88;;;;;;;4.94;100.00;102100.16;6275057;28;20159;-69
2021/11/16 10:41:58;;;;;;;23.23;5.85;;;;;;;4.96;100.00;102093.22;6274645;28;20087;-69
2021/11/16 10:45:00;;;;;;;23.35;6.65;;;;;;;4.97;100.00;102076.69;6274912;28;20056;-69
2021/11/16 10:48:08;;;;;;;22.50;7.25;;;;;;;5.00;100.00;102079.28;6274441;28;20052;-69
2021/11/16 10:51:14;;;;;;;18.35;6.55;;;;;;;5.03;100.00;102082.69;6274590;28;20055;-68
2021/11/16 10:54:16;;;;;;;19.40;6.22;;;;;;;5.05;100.00;102080.09;6274716;28;20056;-69
2021/11/16 10:57:20;;;;;;;19.50;5.32;;;;;;;5.01;100.00;102076.66;6273247;28;20045;-69
2021/11/16 11:00:37;;;;;;;19.73;6.03;;;;;;;5.05;100.00;102077.50;6284397;28;20053;-69
2021/11/16 11:03:43;;;;;;;19.27;6.55;;;;;;;5.02;100.00;102080.13;6299407;28;20098;-68
2021/11/16 11:06:46;;;;;;;15.60;6.20;;;;;;;4.93;100.00;102085.41;6298902;28;20045;-68
2021/11/16 11:09:57;;;;;;;15.88;6.03;;;;;;;4.92;100.00;102076.75;6298841;28;20048;-69
2021/11/16 11:13:16;;;;;;;16.70;6.82;;;;;;;4.92;100.00;102074.13;6298941;28;20415;-68
2021/11/16 11:16:19;;;;;;;16.75;5.35;;;;;;;4.94;100.00;102071.50;6298969;28;20439;-69
2021/11/16 11:19:27;;;;;;;18.05;6.68;;;;;;;4.93;100.00;102069.78;6299075;28;20071;-69
2021/11/16 11:22:31;;;;;;;22.98;6.07;;;;;;;4.93;100.00;102069.78;6298493;28;20052;-68
2021/11/16 11:25:38;;;;;;;22.42;6.28;;;;;;;4.92;100.00;102060.25;6298678;28;20088;-68
2021/11/16 11:28:42;;;;;;;13.02;4.65;;;;;;;4.86;100.00;102055.97;6298547;28;20053;-68
2021/11/16 11:31:44;;;;;;;15.63;5.85;;;;;;;4.81;100.00;102040.38;6296391;28;20045;-69
2021/11/16 11:34:50;;;;;;;17.88;6.10;;;;;;;4.79;100.00;102043.84;6298516;28;20048;-68
2021/11/16 11:37:53;;;;;;;18.58;5.57;;;;;;;4.80;100.00;102038.63;6298131;28;20422;-67
2021/11/16 11:40:56;;;;;;;13.77;4.70;;;;;;;4.81;100.00;102035.16;6298330;28;20055;-69
2021/11/16 11:44:14;;;;;;;12.02;4.60;;;;;;;4.79;100.00;102031.69;6298164;28;20109;-69
2021/11/16 11:47:27;;;;;;;20.75;6.18;;;;;;;4.81;100.00;102026.47;6298224;28;20075;-69
2021/11/16 11:50:35;;;;;;;22.05;5.65;;;;;;;4.85;100.00;102025.56;6297788;28;20192;-69
2021/11/16 11:53:36;;;;;;;16.33;4.40;;;;;;;4.88;100.00;102028.16;6298072;28;20049;-68
2021/11/16 11:56:38;;;;;;;17.08;4.93;;;;;;;4.92;100.00;102027.25;6297728;28;20052;-68
2021/11/16 11:59:39;;;;;;;17.75;6.40;;;;;;;4.87;100.00;102028.19;6289338;28;20523;-68
2021/11/16 12:02:42;;;;;;;16.05;5.85;;;;;;;4.88;100.00;102020.34;6272764;28;20056;-68
2021/11/16 12:05:45;;;;;;;14.18;4.38;;;;;;;4.92;100.00;102014.22;6272895;28;20044;-68
2021/11/16 12:08:47;;;;;;;19.85;8.07;;;;;;;4.91;100.00;102015.09;6272102;28;20056;-68
2021/11/16 12:11:48;;;;;;;19.67;5.80;;;;;;;4.92;100.00;102002.94;6273024;28;20049;-68
2021/11/16 12:14:59;;;;;;;12.85;5.47;;;;;;;4.96;100.00;102002.91;6272601;28;20053;-68
2021/11/16 12:18:01;;;;;;;10.98;4.30;;;;;;;4.97;100.00;102001.16;6272740;28;20052;-68
2021/11/16 12:21:04;;;;;;;14.20;4.80;;;;;;;4.95;100.00;102002.91;6272161;28;20411;-68
2021/11/16 12:24:08;;;;;;;16.60;6.10;;;;;;;4.93;100.00;101994.25;6272581;28;20496;-68
2021/11/16 12:27:09;;;;;;;12.77;4.72;;;;;;;4.95;100.00;102000.28;6272180;28;20048;-68
2021/11/16 12:30:12;;;;;;;14.38;4.88;;;;;;;4.97;100.00;101993.34;6272903;28;20056;-68
2021/11/16 12:33:13;;;;;;;32.63;8.13;;;;;;;4.99;100.00;101986.34;6272133;28;20064;-68
2021/11/16 12:36:17;;;;;;;26.88;8.23;;;;;;;5.00;100.00;101985.50;6271800;28;20522;-68
2021/11/16 12:39:20;;;;;;;25.02;7.53;;;;;;;4.98;100.00;101980.28;6272436;28;20045;-68
2021/11/16 12:42:22;;;;;;;13.48;5.43;;;;;;;4.94;100.00;101982.94;6271681;28;20056;-68
2021/11/16 12:45:37;;;;;;;19.40;5.82;;;;;;;4.90;100.00;101971.69;6272063;28;20049;-68
2021/11/16 12:48:47;;;;;;;14.50;5.35;;;;;;;4.89;100.00;101966.50;6271788;28;20508;-68
2021/11/16 12:51:56;;;;;;;19.50;6.63;;;;;;;4.88;100.00;101978.66;6271690;28;20048;-68
2021/11/16 12:55:15;;;;;;;16.13;5.68;;;;;;;4.82;100.00;101963.09;6271571;28;20045;-68
2021/11/16 12:58:25;;;;;;;17.33;5.65;;;;;;;4.84;100.00;101967.41;6272188;28;20045;-68
2021/11/16 13:01:41;;;;;;;21.17;6.60;;;;;;;4.86;100.00;101966.53;6296095;28;20044;-68
2021/11/16 13:04:45;;;;;;;13.02;4.22;;;;;;;4.83;100.00;101973.50;6296669;28;20427;-68
2021/11/16 13:07:56;;;;;;;15.75;5.97;;;;;;;4.83;100.00;101976.09;6296201;28;20051;-68
2021/11/16 13:10:58;;;;;;;18.13;5.05;;;;;;;4.87;100.00;101971.72;6296242;28;20522;-68
2021/11/16 13:13:59;;;;;;;11.45;4.45;;;;;;;4.88;100.00;101960.44;6296625;28;20055;-68
2021/11/16 13:17:01;;;;;;;15.05;5.78;;;;;;;4.88;100.00;101963.03;6296094;28;20040;-68
2021/11/16 13:20:03;;;;;;;19.58;6.40;;;;;;;4.90;100.00;101965.63;6295031;28;20053;-68
2021/11/16 13:23:08;;;;;;;13.68;5.35;;;;;;;4.90;100.00;101952.59;6296595;28;20457;-68
2021/11/16 13:26:20;;;;;;;18.02;5.90;;;;;;;4.88;100.00;101956.97;6296292;28;20059;-68
2021/11/16 13:29:30;;;;;;;18.33;6.00;;;;;;;4.87;100.00;101950.91;6294377;28;20048;-68
2021/11/16 13:32:31;;;;;;;18.23;6.40;;;;;;;4.86;100.00;101954.38;6296212;28;20111;-69
2021/11/16 13:38:58;;;;;;;20.35;5.95;;;;;;;4.86;100.00;101950.91;6318439;22;20060;-69
2021/11/16 13:42:05;;;;;;;25.25;7.20;;;;;;;4.82;100.00;101944.88;6311493;28;20059;-69
2021/11/16 13:45:07;;;;;;;22.92;8.40;;;;;;;4.82;100.00;101942.28;6314790;28;20048;-68
2021/11/16 13:48:10;;;;;;;16.10;6.65;;;;;;;4.74;100.00;101937.13;6295874;28;20403;-68
2021/11/16 13:51:11;;;;;;;23.48;7.78;;;;;;;4.76;100.00;101934.50;6295699;28;20048;-68
2021/11/16 13:54:14;;;;;;;30.73;8.07;;;;;;;4.77;100.00;101939.72;6296181;28;20048;-68
2021/11/16 13:57:19;;;;;;;27.10;6.95;;;;;;;4.74;100.00;101929.31;6295827;28;20047;-68
2021/11/16 14:00:24;;;;;;;18.05;6.18;;;;;;;4.74;100.00;101918.91;6318396;28;20607;-69
2021/11/16 14:03:28;;;;;;;19.42;6.97;;;;;;;4.76;100.00;101917.13;6320765;28;20178;-68
2021/11/16 14:06:29;;;;;;;13.35;6.13;;;;;;;4.74;100.00;101918.91;6320470;28;20044;-69
2021/11/16 14:09:32;;;;;;;18.40;5.95;;;;;;;4.74;100.00;101923.25;6320857;28;20045;-68
2021/11/16 14:12:33;;;;;;;20.70;7.10;;;;;;;4.71;100.00;101923.28;6320680;28;20063;-68
2021/11/16 14:15:35;;;;;;;24.17;6.53;;;;;;;4.70;100.00;101919.81;6320683;28;20523;-69
2021/11/16 14:18:37;;;;;;;22.73;7.65;;;;;;;4.69;100.00;101919.84;6320735;28;20414;-69